sensor_id;sensor_type;location;lat;lon;timestamp;temperature;humidity
39969;DHT22;25648;47.808;19.004;2023-01-24T00:01:15;12.70;59.90
39969;DHT22;25648;47.808;19.004;2023-01-24T00:03:41;12.90;59.60
39969;DHT22;25648;47.808;19.004;2023-01-24T00:06:12;13.00;59.10
39969;DHT22;25648;47.808;19.004;2023-01-24T00:08:37;12.70;59.30
39969;DHT22;25648;47.808;19.004;2023-01-24T00:11:05;12.20;60.90
39969;DHT22;25648;47.808;19.004;2023-01-24T00:13:32;11.90;61.60
39969;DHT22;25648;47.808;19.004;2023-01-24T00:16:28;12.10;61.70
39969;DHT22;25648;47.808;19.004;2023-01-24T00:18:54;12.30;61.70
39969;DHT22;25648;47.808;19.004;2023-01-24T00:21:22;12.20;60.80
39969;DHT22;25648;47.808;19.004;2023-01-24T00:23:50;11.70;63.10
39969;DHT22;25648;47.808;19.004;2023-01-24T00:26:17;11.60;63.50
39969;DHT22;25648;47.808;19.004;2023-01-24T00:28:44;11.80;62.80
39969;DHT22;25648;47.808;19.004;2023-01-24T00:31:10;12.00;62.10
39969;DHT22;25648;47.808;19.004;2023-01-24T00:33:36;12.10;62.70
39969;DHT22;25648;47.808;19.004;2023-01-24T00:36:02;12.30;61.10
39969;DHT22;25648;47.808;19.004;2023-01-24T00:38:29;12.60;60.20
39969;DHT22;25648;47.808;19.004;2023-01-24T00:40:56;12.90;59.30
39969;DHT22;25648;47.808;19.004;2023-01-24T00:43:22;13.00;59.20
39969;DHT22;25648;47.808;19.004;2023-01-24T00:45:48;13.10;59.00
39969;DHT22;25648;47.808;19.004;2023-01-24T00:48:15;13.20;58.80
39969;DHT22;25648;47.808;19.004;2023-01-24T00:50:41;12.80;59.20
39969;DHT22;25648;47.808;19.004;2023-01-24T00:53:06;12.50;60.70
39969;DHT22;25648;47.808;19.004;2023-01-24T00:55:32;12.20;61.30
39969;DHT22;25648;47.808;19.004;2023-01-24T00:57:58;12.30;61.60
39969;DHT22;25648;47.808;19.004;2023-01-24T01:00:24;12.00;62.10
39969;DHT22;25648;47.808;19.004;2023-01-24T01:02:50;12.10;62.00
39969;DHT22;25648;47.808;19.004;2023-01-24T01:05:17;12.40;61.40
39969;DHT22;25648;47.808;19.004;2023-01-24T01:07:43;12.60;59.70
39969;DHT22;25648;47.808;19.004;2023-01-24T01:10:09;12.40;60.80
39969;DHT22;25648;47.808;19.004;2023-01-24T01:12:35;12.50;60.50
39969;DHT22;25648;47.808;19.004;2023-01-24T01:15:01;12.60;60.20
39969;DHT22;25648;47.808;19.004;2023-01-24T01:17:27;13.00;59.00
39969;DHT22;25648;47.808;19.004;2023-01-24T01:19:53;13.10;58.40
39969;DHT22;25648;47.808;19.004;2023-01-24T01:22:19;13.20;58.50
39969;DHT22;25648;47.808;19.004;2023-01-24T01:24:45;13.40;58.00
39969;DHT22;25648;47.808;19.004;2023-01-24T01:27:11;13.30;58.50
39969;DHT22;25648;47.808;19.004;2023-01-24T01:29:37;13.00;57.50
39969;DHT22;25648;47.808;19.004;2023-01-24T01:32:08;12.70;58.70
39969;DHT22;25648;47.808;19.004;2023-01-24T01:34:34;12.60;59.70
39969;DHT22;25648;47.808;19.004;2023-01-24T01:37:00;12.70;58.70
39969;DHT22;25648;47.808;19.004;2023-01-24T01:39:27;12.80;59.00
39969;DHT22;25648;47.808;19.004;2023-01-24T01:41:52;13.00;58.80
39969;DHT22;25648;47.808;19.004;2023-01-24T01:44:28;12.70;59.90
39969;DHT22;25648;47.808;19.004;2023-01-24T01:47:28;12.60;60.30
39969;DHT22;25648;47.808;19.004;2023-01-24T01:50:25;12.80;59.30
39969;DHT22;25648;47.808;19.004;2023-01-24T01:52:52;12.80;59.70
39969;DHT22;25648;47.808;19.004;2023-01-24T01:55:21;12.80;60.20
39969;DHT22;25648;47.808;19.004;2023-01-24T01:57:49;12.80;59.90
39969;DHT22;25648;47.808;19.004;2023-01-24T02:00:21;12.90;59.30
39969;DHT22;25648;47.808;19.004;2023-01-24T02:03:13;13.00;59.30
39969;DHT22;25648;47.808;19.004;2023-01-24T02:05:57;12.90;60.30
39969;DHT22;25648;47.808;19.004;2023-01-24T02:08:23;13.00;58.70
39969;DHT22;25648;47.808;19.004;2023-01-24T02:10:50;12.80;59.40
39969;DHT22;25648;47.808;19.004;2023-01-24T02:13:36;12.80;59.70
39969;DHT22;25648;47.808;19.004;2023-01-24T02:16:05;12.60;59.90
39969;DHT22;25648;47.808;19.004;2023-01-24T02:18:40;12.40;60.80
39969;DHT22;25648;47.808;19.004;2023-01-24T02:21:16;12.30;61.20
39969;DHT22;25648;47.808;19.004;2023-01-24T02:26:24;12.50;61.10
39969;DHT22;25648;47.808;19.004;2023-01-24T02:29:09;12.80;60.20
39969;DHT22;25648;47.808;19.004;2023-01-24T02:31:59;12.70;60.00
39969;DHT22;25648;47.808;19.004;2023-01-24T02:34:26;12.40;60.60
39969;DHT22;25648;47.808;19.004;2023-01-24T02:37:01;12.30;61.20
39969;DHT22;25648;47.808;19.004;2023-01-24T02:39:53;12.60;60.10
39969;DHT22;25648;47.808;19.004;2023-01-24T02:42:30;12.90;59.40
39969;DHT22;25648;47.808;19.004;2023-01-24T02:47:31;13.00;57.80
39969;DHT22;25648;47.808;19.004;2023-01-24T02:50:04;12.60;59.80
39969;DHT22;25648;47.808;19.004;2023-01-24T02:52:32;12.40;58.80
39969;DHT22;25648;47.808;19.004;2023-01-24T02:55:16;12.40;59.50
39969;DHT22;25648;47.808;19.004;2023-01-24T02:57:42;12.60;58.70
39969;DHT22;25648;47.808;19.004;2023-01-24T03:00:26;12.50;59.70
39969;DHT22;25648;47.808;19.004;2023-01-24T03:02:52;12.40;58.90
39969;DHT22;25648;47.808;19.004;2023-01-24T03:05:18;12.50;59.00
39969;DHT22;25648;47.808;19.004;2023-01-24T03:07:44;12.30;60.40
39969;DHT22;25648;47.808;19.004;2023-01-24T03:10:12;12.50;59.70
39969;DHT22;25648;47.808;19.004;2023-01-24T03:12:38;12.70;58.60
39969;DHT22;25648;47.808;19.004;2023-01-24T03:15:23;12.80;58.30
39969;DHT22;25648;47.808;19.004;2023-01-24T03:18:07;13.00;58.10
39969;DHT22;25648;47.808;19.004;2023-01-24T03:20:52;12.90;58.30
39969;DHT22;25648;47.808;19.004;2023-01-24T03:23:36;12.80;58.90
39969;DHT22;25648;47.808;19.004;2023-01-24T03:26:21;12.80;59.30
39969;DHT22;25648;47.808;19.004;2023-01-24T03:29:05;12.90;58.70
39969;DHT22;25648;47.808;19.004;2023-01-24T03:31:55;12.60;58.10
39969;DHT22;25648;47.808;19.004;2023-01-24T03:34:39;12.50;59.00
39969;DHT22;25648;47.808;19.004;2023-01-24T03:37:16;12.50;58.80
39969;DHT22;25648;47.808;19.004;2023-01-24T03:39:42;12.50;58.80
39969;DHT22;25648;47.808;19.004;2023-01-24T03:42:24;12.70;58.50
39969;DHT22;25648;47.808;19.004;2023-01-24T03:44:51;12.70;58.50
39969;DHT22;25648;47.808;19.004;2023-01-24T03:47:16;12.70;58.30
39969;DHT22;25648;47.808;19.004;2023-01-24T03:49:42;12.80;57.90
39969;DHT22;25648;47.808;19.004;2023-01-24T03:52:26;12.70;58.50
39969;DHT22;25648;47.808;19.004;2023-01-24T03:54:58;12.60;58.30
39969;DHT22;25648;47.808;19.004;2023-01-24T03:57:26;12.50;58.10
39969;DHT22;25648;47.808;19.004;2023-01-24T03:59:52;12.60;58.00
39969;DHT22;25648;47.808;19.004;2023-01-24T04:02:18;12.40;58.20
39969;DHT22;25648;47.808;19.004;2023-01-24T04:04:44;12.50;58.10
39969;DHT22;25648;47.808;19.004;2023-01-24T04:07:29;12.50;58.00
39969;DHT22;25648;47.808;19.004;2023-01-24T04:09:55;12.50;58.10
39969;DHT22;25648;47.808;19.004;2023-01-24T04:12:23;12.70;57.90
39969;DHT22;25648;47.808;19.004;2023-01-24T04:14:49;12.80;57.80
39969;DHT22;25648;47.808;19.004;2023-01-24T04:17:15;12.80;57.50
39969;DHT22;25648;47.808;19.004;2023-01-24T04:19:40;12.80;57.50
39969;DHT22;25648;47.808;19.004;2023-01-24T04:22:06;12.70;57.80
39969;DHT22;25648;47.808;19.004;2023-01-24T04:24:32;12.70;57.90
39969;DHT22;25648;47.808;19.004;2023-01-24T04:26:57;12.80;57.70
39969;DHT22;25648;47.808;19.004;2023-01-24T04:29:23;12.80;57.60
39969;DHT22;25648;47.808;19.004;2023-01-24T04:31:49;12.80;57.50
39969;DHT22;25648;47.808;19.004;2023-01-24T04:34:14;12.80;57.50
39969;DHT22;25648;47.808;19.004;2023-01-24T04:36:40;12.90;57.30
39969;DHT22;25648;47.808;19.004;2023-01-24T04:39:06;12.90;57.00
39969;DHT22;25648;47.808;19.004;2023-01-24T04:41:32;12.90;57.30
39969;DHT22;25648;47.808;19.004;2023-01-24T04:43:57;12.90;57.30
39969;DHT22;25648;47.808;19.004;2023-01-24T04:46:23;12.90;57.10
39969;DHT22;25648;47.808;19.004;2023-01-24T04:48:49;12.60;58.40
39969;DHT22;25648;47.808;19.004;2023-01-24T04:51:15;12.70;58.40
39969;DHT22;25648;47.808;19.004;2023-01-24T04:53:42;12.70;58.00
39969;DHT22;25648;47.808;19.004;2023-01-24T04:56:08;12.90;57.80
39969;DHT22;25648;47.808;19.004;2023-01-24T04:58:34;12.80;57.20
39969;DHT22;25648;47.808;19.004;2023-01-24T05:01:00;12.60;58.00
39969;DHT22;25648;47.808;19.004;2023-01-24T05:03:26;12.70;57.80
39969;DHT22;25648;47.808;19.004;2023-01-24T05:05:53;12.80;57.80
39969;DHT22;25648;47.808;19.004;2023-01-24T05:08:19;12.80;57.80
39969;DHT22;25648;47.808;19.004;2023-01-24T05:10:46;12.90;57.40
39969;DHT22;25648;47.808;19.004;2023-01-24T05:13:25;12.80;57.30
39969;DHT22;25648;47.808;19.004;2023-01-24T05:15:51;12.80;57.50
39969;DHT22;25648;47.808;19.004;2023-01-24T05:18:17;12.70;57.60
39969;DHT22;25648;47.808;19.004;2023-01-24T05:20:43;12.70;57.60
39969;DHT22;25648;47.808;19.004;2023-01-24T05:23:09;12.80;57.80
39969;DHT22;25648;47.808;19.004;2023-01-24T05:25:35;12.70;57.60
39969;DHT22;25648;47.808;19.004;2023-01-24T05:28:00;12.60;58.20
39969;DHT22;25648;47.808;19.004;2023-01-24T05:30:26;12.60;57.70
39969;DHT22;25648;47.808;19.004;2023-01-24T05:32:58;12.40;57.70
39969;DHT22;25648;47.808;19.004;2023-01-24T05:35:24;12.40;57.80
39969;DHT22;25648;47.808;19.004;2023-01-24T05:37:50;12.20;57.80
39969;DHT22;25648;47.808;19.004;2023-01-24T05:40:16;12.20;58.20
39969;DHT22;25648;47.808;19.004;2023-01-24T05:42:42;12.20;58.40
39969;DHT22;25648;47.808;19.004;2023-01-24T05:45:09;12.20;58.30
39969;DHT22;25648;47.808;19.004;2023-01-24T05:47:35;12.20;58.40
39969;DHT22;25648;47.808;19.004;2023-01-24T05:50:01;12.20;58.20
39969;DHT22;25648;47.808;19.004;2023-01-24T05:52:27;12.30;58.20
39969;DHT22;25648;47.808;19.004;2023-01-24T05:54:53;12.30;58.20
39969;DHT22;25648;47.808;19.004;2023-01-24T05:57:19;12.40;58.00
39969;DHT22;25648;47.808;19.004;2023-01-24T05:59:45;12.50;57.90
39969;DHT22;25648;47.808;19.004;2023-01-24T06:02:10;12.60;57.70
39969;DHT22;25648;47.808;19.004;2023-01-24T06:04:36;12.40;58.30
39969;DHT22;25648;47.808;19.004;2023-01-24T06:07:02;12.40;58.40
39969;DHT22;25648;47.808;19.004;2023-01-24T06:09:28;12.40;58.40
39969;DHT22;25648;47.808;19.004;2023-01-24T06:11:53;12.40;57.80
39969;DHT22;25648;47.808;19.004;2023-01-24T06:14:20;12.40;57.10
39969;DHT22;25648;47.808;19.004;2023-01-24T06:16:46;12.20;57.70
39969;DHT22;25648;47.808;19.004;2023-01-24T06:19:13;12.30;57.80
39969;DHT22;25648;47.808;19.004;2023-01-24T06:21:58;12.30;57.60
39969;DHT22;25648;47.808;19.004;2023-01-24T06:24:27;12.30;58.10
39969;DHT22;25648;47.808;19.004;2023-01-24T06:26:53;12.20;57.80
39969;DHT22;25648;47.808;19.004;2023-01-24T06:29:20;11.90;58.50
39969;DHT22;25648;47.808;19.004;2023-01-24T06:39:30;11.90;59.40
39969;DHT22;25648;47.808;19.004;2023-01-24T06:41:56;11.70;60.50
39969;DHT22;25648;47.808;19.004;2023-01-24T06:44:22;11.60;60.20
39969;DHT22;25648;47.808;19.004;2023-01-24T06:46:48;11.40;59.70
39969;DHT22;25648;47.808;19.004;2023-01-24T06:49:14;11.20;61.60
39969;DHT22;25648;47.808;19.004;2023-01-24T06:51:39;11.20;61.40
39969;DHT22;25648;47.808;19.004;2023-01-24T06:54:05;11.50;60.70
39969;DHT22;25648;47.808;19.004;2023-01-24T06:56:32;11.80;60.10
39969;DHT22;25648;47.808;19.004;2023-01-24T06:58:58;12.10;59.60
39969;DHT22;25648;47.808;19.004;2023-01-24T07:01:24;12.10;59.60
39969;DHT22;25648;47.808;19.004;2023-01-24T07:03:49;12.20;59.90
39969;DHT22;25648;47.808;19.004;2023-01-24T07:06:15;12.10;59.50
39969;DHT22;25648;47.808;19.004;2023-01-24T07:08:41;11.80;60.00
39969;DHT22;25648;47.808;19.004;2023-01-24T07:11:07;12.00;60.20
39969;DHT22;25648;47.808;19.004;2023-01-24T07:13:32;12.30;59.70
39969;DHT22;25648;47.808;19.004;2023-01-24T07:16:01;12.30;59.80
39969;DHT22;25648;47.808;19.004;2023-01-24T07:18:27;12.30;60.30
39969;DHT22;25648;47.808;19.004;2023-01-24T07:20:53;12.50;59.80
39969;DHT22;25648;47.808;19.004;2023-01-24T07:23:27;12.50;59.60
39969;DHT22;25648;47.808;19.004;2023-01-24T07:25:58;12.60;59.30
39969;DHT22;25648;47.808;19.004;2023-01-24T07:28:24;12.50;59.20
39969;DHT22;25648;47.808;19.004;2023-01-24T07:30:52;12.50;59.60
39969;DHT22;25648;47.808;19.004;2023-01-24T07:33:18;12.50;59.70
39969;DHT22;25648;47.808;19.004;2023-01-24T07:35:44;12.50;59.50
39969;DHT22;25648;47.808;19.004;2023-01-24T07:38:10;12.50;59.70
39969;DHT22;25648;47.808;19.004;2023-01-24T07:40:37;12.50;59.70
39969;DHT22;25648;47.808;19.004;2023-01-24T07:43:04;12.60;59.70
39969;DHT22;25648;47.808;19.004;2023-01-24T07:45:30;12.80;59.40
39969;DHT22;25648;47.808;19.004;2023-01-24T07:47:57;13.10;58.80
39969;DHT22;25648;47.808;19.004;2023-01-24T07:50:25;13.10;58.50
39969;DHT22;25648;47.808;19.004;2023-01-24T07:52:54;12.90;58.90
39969;DHT22;25648;47.808;19.004;2023-01-24T07:55:21;12.80;59.30
39969;DHT22;25648;47.808;19.004;2023-01-24T07:57:47;12.70;59.30
39969;DHT22;25648;47.808;19.004;2023-01-24T08:00:13;12.60;59.70
39969;DHT22;25648;47.808;19.004;2023-01-24T08:02:43;12.50;59.60
39969;DHT22;25648;47.808;19.004;2023-01-24T08:05:09;12.60;60.10
39969;DHT22;25648;47.808;19.004;2023-01-24T08:07:36;12.70;60.00
39969;DHT22;25648;47.808;19.004;2023-01-24T08:10:05;12.90;59.80
39969;DHT22;25648;47.808;19.004;2023-01-24T08:12:31;13.20;59.20
39969;DHT22;25648;47.808;19.004;2023-01-24T08:14:56;13.30;59.30
39969;DHT22;25648;47.808;19.004;2023-01-24T08:17:22;13.60;58.60
39969;DHT22;25648;47.808;19.004;2023-01-24T08:19:48;13.70;58.90
39969;DHT22;25648;47.808;19.004;2023-01-24T08:22:13;13.90;58.50
39969;DHT22;25648;47.808;19.004;2023-01-24T08:24:39;14.10;58.20
39969;DHT22;25648;47.808;19.004;2023-01-24T08:27:05;14.40;57.40
39969;DHT22;25648;47.808;19.004;2023-01-24T08:29:31;14.50;57.40
39969;DHT22;25648;47.808;19.004;2023-01-24T08:31:57;14.30;57.20
39969;DHT22;25648;47.808;19.004;2023-01-24T08:34:24;14.10;58.20
39969;DHT22;25648;47.808;19.004;2023-01-24T08:36:50;14.40;58.00
39969;DHT22;25648;47.808;19.004;2023-01-24T08:39:15;14.60;57.70
39969;DHT22;25648;47.808;19.004;2023-01-24T08:41:42;14.70;57.20
39969;DHT22;25648;47.808;19.004;2023-01-24T08:44:12;14.70;57.20
39969;DHT22;25648;47.808;19.004;2023-01-24T08:46:38;14.80;57.00
39969;DHT22;25648;47.808;19.004;2023-01-24T08:49:04;14.50;56.90
39969;DHT22;25648;47.808;19.004;2023-01-24T08:51:30;14.20;57.80
39969;DHT22;25648;47.808;19.004;2023-01-24T08:53:56;14.00;58.40
39969;DHT22;25648;47.808;19.004;2023-01-24T08:56:22;14.30;58.30
39969;DHT22;25648;47.808;19.004;2023-01-24T08:58:48;14.10;58.60
39969;DHT22;25648;47.808;19.004;2023-01-24T09:01:14;14.00;58.40
39969;DHT22;25648;47.808;19.004;2023-01-24T09:03:40;14.20;58.40
39969;DHT22;25648;47.808;19.004;2023-01-24T09:06:06;14.40;57.80
39969;DHT22;25648;47.808;19.004;2023-01-24T09:08:31;14.60;57.80
39969;DHT22;25648;47.808;19.004;2023-01-24T09:10:58;14.80;57.10
39969;DHT22;25648;47.808;19.004;2023-01-24T09:13:25;15.00;56.70
39969;DHT22;25648;47.808;19.004;2023-01-24T09:15:51;15.00;56.90
39969;DHT22;25648;47.808;19.004;2023-01-24T09:18:16;14.80;57.20
39969;DHT22;25648;47.808;19.004;2023-01-24T09:20:42;15.00;57.40
39969;DHT22;25648;47.808;19.004;2023-01-24T09:23:10;15.10;56.90
39969;DHT22;25648;47.808;19.004;2023-01-24T09:25:37;15.40;56.80
39969;DHT22;25648;47.808;19.004;2023-01-24T09:28:03;15.50;56.40
39969;DHT22;25648;47.808;19.004;2023-01-24T09:30:28;15.40;56.60
39969;DHT22;25648;47.808;19.004;2023-01-24T09:32:54;15.80;55.90
39969;DHT22;25648;47.808;19.004;2023-01-24T09:35:20;16.40;55.30
39969;DHT22;25648;47.808;19.004;2023-01-24T09:37:46;17.00;55.00
39969;DHT22;25648;47.808;19.004;2023-01-24T09:40:21;18.00;53.40
39969;DHT22;25648;47.808;19.004;2023-01-24T09:43:15;19.10;52.10
39969;DHT22;25648;47.808;19.004;2023-01-24T09:48:41;22.30;47.30
39969;DHT22;25648;47.808;19.004;2023-01-24T09:51:18;23.20;45.90
39969;DHT22;25648;47.808;19.004;2023-01-24T09:53:51;24.30;45.30
39969;DHT22;25648;47.808;19.004;2023-01-24T09:56:22;24.90;45.20
39969;DHT22;25648;47.808;19.004;2023-01-24T09:59:16;25.50;44.10
39969;DHT22;25648;47.808;19.004;2023-01-24T10:01:46;25.60;43.30
39969;DHT22;25648;47.808;19.004;2023-01-24T10:04:30;25.80;42.60
39969;DHT22;25648;47.808;19.004;2023-01-24T10:15:30;25.50;41.90
39969;DHT22;25648;47.808;19.004;2023-01-24T10:28:24;24.70;43.20
39969;DHT22;25648;47.808;19.004;2023-01-24T10:30:57;24.40;44.30
39969;DHT22;25648;47.808;19.004;2023-01-24T10:33:29;24.30;45.00
39969;DHT22;25648;47.808;19.004;2023-01-24T10:36:19;24.00;44.50
39969;DHT22;25648;47.808;19.004;2023-01-24T10:38:42;24.10;44.40
39969;DHT22;25648;47.808;19.004;2023-01-24T10:41:21;24.60;43.90
39969;DHT22;25648;47.808;19.004;2023-01-24T10:43:58;25.10;43.20
39969;DHT22;25648;47.808;19.004;2023-01-24T10:49:24;24.60;42.80
39969;DHT22;25648;47.808;19.004;2023-01-24T10:52:11;23.70;43.10
39969;DHT22;25648;47.808;19.004;2023-01-24T10:54:56;23.00;43.90
39969;DHT22;25648;47.808;19.004;2023-01-24T10:57:41;22.40;44.60
39969;DHT22;25648;47.808;19.004;2023-01-24T11:02:55;22.40;44.50
39969;DHT22;25648;47.808;19.004;2023-01-24T11:05:23;22.50;44.30
39969;DHT22;25648;47.808;19.004;2023-01-24T11:07:59;22.80;44.90
39969;DHT22;25648;47.808;19.004;2023-01-24T11:10:30;23.20;43.80
39969;DHT22;25648;47.808;19.004;2023-01-24T11:12:58;23.20;44.10
39969;DHT22;25648;47.808;19.004;2023-01-24T11:15:32;23.60;43.90
39969;DHT22;25648;47.808;19.004;2023-01-24T11:18:19;24.20;43.50
39969;DHT22;25648;47.808;19.004;2023-01-24T11:20:45;24.50;42.90
39969;DHT22;25648;47.808;19.004;2023-01-24T11:23:16;24.30;42.50
39969;DHT22;25648;47.808;19.004;2023-01-24T11:25:52;24.00;43.40
39969;DHT22;25648;47.808;19.004;2023-01-24T11:28:31;23.60;43.70
39969;DHT22;25648;47.808;19.004;2023-01-24T11:31:06;22.70;44.80
39969;DHT22;25648;47.808;19.004;2023-01-24T11:38:45;20.30;47.00
39969;DHT22;25648;47.808;19.004;2023-01-24T11:43:49;19.50;47.60
39969;DHT22;25648;47.808;19.004;2023-01-24T11:46:36;19.30;48.30
39969;DHT22;25648;47.808;19.004;2023-01-24T11:49:31;19.00;48.30
39969;DHT22;25648;47.808;19.004;2023-01-24T11:57:13;18.10;50.10
39969;DHT22;25648;47.808;19.004;2023-01-24T12:02:51;17.90;49.90
39969;DHT22;25648;47.808;19.004;2023-01-24T12:22:21;18.00;50.00
39969;DHT22;25648;47.808;19.004;2023-01-24T12:25:02;17.90;50.40
39969;DHT22;25648;47.808;19.004;2023-01-24T12:27:33;17.80;50.50
39969;DHT22;25648;47.808;19.004;2023-01-24T12:30:05;17.70;50.50
39969;DHT22;25648;47.808;19.004;2023-01-24T12:35:38;17.80;51.00
39969;DHT22;25648;47.808;19.004;2023-01-24T12:38:36;17.80;50.90
39969;DHT22;25648;47.808;19.004;2023-01-24T12:41:09;17.70;50.80
39969;DHT22;25648;47.808;19.004;2023-01-24T12:44:00;17.80;51.40
39969;DHT22;25648;47.808;19.004;2023-01-24T12:46:38;17.90;51.10
39969;DHT22;25648;47.808;19.004;2023-01-24T12:54:38;18.30;49.90
39969;DHT22;25648;47.808;19.004;2023-01-24T12:59:48;18.70;49.20
39969;DHT22;25648;47.808;19.004;2023-01-24T13:08:21;18.70;49.70
39969;DHT22;25648;47.808;19.004;2023-01-24T13:13:40;18.10;50.30
39969;DHT22;25648;47.808;19.004;2023-01-24T13:16:47;18.00;50.40
39969;DHT22;25648;47.808;19.004;2023-01-24T13:19:47;17.90;51.00
39969;DHT22;25648;47.808;19.004;2023-01-24T13:31:31;17.50;52.00
39969;DHT22;25648;47.808;19.004;2023-01-24T13:34:03;17.50;51.70
39969;DHT22;25648;47.808;19.004;2023-01-24T13:36:35;17.50;52.20
39969;DHT22;25648;47.808;19.004;2023-01-24T13:39:03;17.50;52.00
39969;DHT22;25648;47.808;19.004;2023-01-24T13:51:43;17.30;52.00
39969;DHT22;25648;47.808;19.004;2023-01-24T13:57:10;17.50;52.30
39969;DHT22;25648;47.808;19.004;2023-01-24T13:59:42;17.50;52.50
39969;DHT22;25648;47.808;19.004;2023-01-24T14:02:29;17.40;52.40
39969;DHT22;25648;47.808;19.004;2023-01-24T14:04:56;17.30;52.30
39969;DHT22;25648;47.808;19.004;2023-01-24T14:07:36;17.20;53.00
39969;DHT22;25648;47.808;19.004;2023-01-24T14:10:05;17.40;53.00
39969;DHT22;25648;47.808;19.004;2023-01-24T14:12:36;17.30;52.90
39969;DHT22;25648;47.808;19.004;2023-01-24T14:23:02;17.60;52.80
39969;DHT22;25648;47.808;19.004;2023-01-24T14:25:53;17.60;52.90
39969;DHT22;25648;47.808;19.004;2023-01-24T14:28:32;17.30;52.10
39969;DHT22;25648;47.808;19.004;2023-01-24T14:31:06;17.30;52.10
39969;DHT22;25648;47.808;19.004;2023-01-24T14:34:43;17.40;52.70
39969;DHT22;25648;47.808;19.004;2023-01-24T14:36:38;17.50;52.60
39969;DHT22;25648;47.808;19.004;2023-01-24T14:39:25;17.60;52.60
39969;DHT22;25648;47.808;19.004;2023-01-24T14:41:54;17.50;52.90
39969;DHT22;25648;47.808;19.004;2023-01-24T14:44:26;17.40;53.10
39969;DHT22;25648;47.808;19.004;2023-01-24T14:46:59;17.30;52.90
39969;DHT22;25648;47.808;19.004;2023-01-24T14:49:27;17.20;53.30
39969;DHT22;25648;47.808;19.004;2023-01-24T14:51:53;17.00;53.80
39969;DHT22;25648;47.808;19.004;2023-01-24T14:54:21;16.80;54.10
39969;DHT22;25648;47.808;19.004;2023-01-24T14:56:47;16.70;54.70
39969;DHT22;25648;47.808;19.004;2023-01-24T14:59:16;16.70;54.60
39969;DHT22;25648;47.808;19.004;2023-01-24T15:01:43;16.50;54.60
39969;DHT22;25648;47.808;19.004;2023-01-24T15:04:27;16.50;54.80
39969;DHT22;25648;47.808;19.004;2023-01-24T15:09:29;16.20;55.30
39969;DHT22;25648;47.808;19.004;2023-01-24T15:11:55;16.20;55.50
39969;DHT22;25648;47.808;19.004;2023-01-24T15:14:21;16.10;55.50
39969;DHT22;25648;47.808;19.004;2023-01-24T15:16:49;16.00;56.00
39969;DHT22;25648;47.808;19.004;2023-01-24T15:19:26;15.90;55.90
39969;DHT22;25648;47.808;19.004;2023-01-24T15:21:57;15.80;56.20
39969;DHT22;25648;47.808;19.004;2023-01-24T15:24:26;15.80;56.20
39969;DHT22;25648;47.808;19.004;2023-01-24T15:26:57;15.80;56.50
39969;DHT22;25648;47.808;19.004;2023-01-24T15:29:44;15.70;56.50
39969;DHT22;25648;47.808;19.004;2023-01-24T15:37:45;15.30;56.90
39969;DHT22;25648;47.808;19.004;2023-01-24T15:40:19;15.20;57.50
39969;DHT22;25648;47.808;19.004;2023-01-24T15:42:46;15.10;57.10
39969;DHT22;25648;47.808;19.004;2023-01-24T15:45:35;14.90;57.60
39969;DHT22;25648;47.808;19.004;2023-01-24T15:48:13;14.70;58.40
39969;DHT22;25648;47.808;19.004;2023-01-24T15:50:52;14.50;58.50
39969;DHT22;25648;47.808;19.004;2023-01-24T15:53:43;14.40;59.00
39969;DHT22;25648;47.808;19.004;2023-01-24T15:56:13;14.40;59.40
39969;DHT22;25648;47.808;19.004;2023-01-24T15:58:39;14.50;59.20
39969;DHT22;25648;47.808;19.004;2023-01-24T16:01:05;14.50;59.20
39969;DHT22;25648;47.808;19.004;2023-01-24T16:03:31;14.40;59.20
39969;DHT22;25648;47.808;19.004;2023-01-24T16:05:57;14.20;59.50
39969;DHT22;25648;47.808;19.004;2023-01-24T16:08:23;14.10;60.00
39969;DHT22;25648;47.808;19.004;2023-01-24T16:10:50;14.10;60.20
39969;DHT22;25648;47.808;19.004;2023-01-24T16:13:37;14.10;59.70
39969;DHT22;25648;47.808;19.004;2023-01-24T16:16:06;14.00;60.30
39969;DHT22;25648;47.808;19.004;2023-01-24T16:18:33;14.00;60.40
39969;DHT22;25648;47.808;19.004;2023-01-24T16:20:59;14.20;60.00
39969;DHT22;25648;47.808;19.004;2023-01-24T16:23:26;14.10;59.70
39969;DHT22;25648;47.808;19.004;2023-01-24T16:25:56;14.20;59.90
39969;DHT22;25648;47.808;19.004;2023-01-24T16:28:24;14.10;59.40
39969;DHT22;25648;47.808;19.004;2023-01-24T16:30:52;14.10;59.70
39969;DHT22;25648;47.808;19.004;2023-01-24T16:33:20;14.20;59.20
39969;DHT22;25648;47.808;19.004;2023-01-24T16:35:46;14.20;58.60
39969;DHT22;25648;47.808;19.004;2023-01-24T16:38:13;14.30;58.80
39969;DHT22;25648;47.808;19.004;2023-01-24T16:40:40;14.10;58.80
39969;DHT22;25648;47.808;19.004;2023-01-24T16:43:06;14.20;58.70
39969;DHT22;25648;47.808;19.004;2023-01-24T16:45:33;14.10;58.80
39969;DHT22;25648;47.808;19.004;2023-01-24T16:48:02;14.10;59.10
39969;DHT22;25648;47.808;19.004;2023-01-24T16:50:29;14.10;58.70
39969;DHT22;25648;47.808;19.004;2023-01-24T16:52:57;14.20;58.50
39969;DHT22;25648;47.808;19.004;2023-01-24T16:55:22;14.20;58.30
39969;DHT22;25648;47.808;19.004;2023-01-24T16:57:48;14.10;58.60
39969;DHT22;25648;47.808;19.004;2023-01-24T17:00:14;13.90;58.70
39969;DHT22;25648;47.808;19.004;2023-01-24T17:02:44;13.50;59.70
39969;DHT22;25648;47.808;19.004;2023-01-24T17:05:10;13.30;60.00
39969;DHT22;25648;47.808;19.004;2023-01-24T17:07:36;13.20;60.30
39969;DHT22;25648;47.808;19.004;2023-01-24T17:10:25;13.20;60.30
39969;DHT22;25648;47.808;19.004;2023-01-24T17:12:52;13.30;60.50
39969;DHT22;25648;47.808;19.004;2023-01-24T17:15:18;13.40;60.00
39969;DHT22;25648;47.808;19.004;2023-01-24T17:17:44;13.60;59.30
39969;DHT22;25648;47.808;19.004;2023-01-24T17:20:10;13.60;59.10
39969;DHT22;25648;47.808;19.004;2023-01-24T17:22:37;13.30;59.20
39969;DHT22;25648;47.808;19.004;2023-01-24T17:25:04;12.50;60.70
39969;DHT22;25648;47.808;19.004;2023-01-24T17:27:30;12.20;62.00
39969;DHT22;25648;47.808;19.004;2023-01-24T17:29:56;12.30;61.90
39969;DHT22;25648;47.808;19.004;2023-01-24T17:32:22;12.60;61.40
39969;DHT22;25648;47.808;19.004;2023-01-24T17:34:48;12.80;61.10
39969;DHT22;25648;47.808;19.004;2023-01-24T17:37:13;12.90;60.60
39969;DHT22;25648;47.808;19.004;2023-01-24T17:39:39;13.00;59.70
39969;DHT22;25648;47.808;19.004;2023-01-24T17:42:05;13.10;59.50
39969;DHT22;25648;47.808;19.004;2023-01-24T17:44:31;13.00;59.60
39969;DHT22;25648;47.808;19.004;2023-01-24T17:46:56;12.70;59.70